| # | Name | Team | Pos | GP | G | A | PTS | PIM | +/- | GWG | PPG | SHG | SOG | SG% | TM | M/G ▴ | TSh | AT/S | |
|---|---|---|---|---|---|---|---|---|---|---|---|---|---|---|---|---|---|---|---|
| 1 ... 3 4 5 6 7 8 9 10 11 ... 14 | |||||||||||||||||||
| 181 | DRAISAITL Leon | GER | F | 7 | 1 | 3 | 4 | 0 | -3 | 0 | 0 | 0 | 8 | 12.50 | 93:41 | 13:23 | 122 | 0:46 | |
| 182 | JÄRNKROK Calle | SWE | F | 10 | 0 | 0 | 0 | 4 | 3 | 0 | 0 | 0 | 20 | 0.00 | 134:05 | 13:24 | 196 | 0:41 | |
| BORRELLI David | ITA | F | 7 | 1 | 0 | 1 | 6 | -3 | 0 | 0 | 0 | 11 | 9.09 | 93:51 | 13:24 | 132 | 0:42 | ||
| 184 | PAKARINEN Iiro | FIN | F | 10 | 3 | 0 | 3 | 2 | 8 | 2 | 0 | 0 | 18 | 16.67 | 134:20 | 13:26 | 217 | 0:37 | |
| 185 | AHNELÖV Jonas | SWE | D | 3 | 0 | 0 | 0 | 0 | -1 | 0 | 0 | 0 | 2 | 0.00 | 40:22 | 13:27 | 53 | 0:45 | |
| 186 | SCHÄPPI Reto | SUI | F | 7 | 1 | 0 | 1 | 6 | 0 | 0 | 0 | 1 | 7 | 14.29 | 94:39 | 13:31 | 147 | 0:38 | |
| 187 | KINK Marcus | GER | F | 6 | 0 | 0 | 0 | 4 | -3 | 0 | 0 | 0 | 4 | 0.00 | 81:40 | 13:36 | 118 | 0:41 | |
| SEIDENBERG Yannic | GER | F | 7 | 0 | 0 | 0 | 2 | -1 | 0 | 0 | 0 | 12 | 0.00 | 95:18 | 13:36 | 133 | 0:42 | ||
| 189 | VONDRKA Michal | CZE | F | 6 | 0 | 0 | 0 | 0 | -1 | 0 | 0 | 0 | 8 | 0.00 | 82:38 | 13:46 | 121 | 0:40 | |
| 190 | WARD Joel | CAN | F | 8 | 6 | 3 | 9 | 4 | 7 | 1 | 2 | 0 | 11 | 54.55 | 110:22 | 13:47 | 160 | 0:41 | |
| 191 | MIKÚŠ Juraj | SVK | F | 7 | 1 | 2 | 3 | 8 | 5 | 0 | 0 | 0 | 5 | 20.00 | 96:52 | 13:50 | 118 | 0:49 | |
| 192 | RĒDLIHS Jēkabs | LAT | D | 7 | 0 | 2 | 2 | 4 | 3 | 0 | 0 | 0 | 5 | 0.00 | 96:58 | 13:51 | 142 | 0:40 | |
| KLASEN Linus | SWE | F | 10 | 2 | 7 | 9 | 8 | 3 | 1 | 0 | 0 | 19 | 10.53 | 138:33 | 13:51 | 186 | 0:44 | ||
| 194 | GOTOVETS Kirill | BLR | D | 7 | 0 | 0 | 0 | 6 | -1 | 0 | 0 | 0 | 9 | 0.00 | 97:09 | 13:52 | 151 | 0:38 | |
| 195 | ZARIPOV Danis | RUS | F | 10 | 3 | 10 | 13 | 6 | 7 | 1 | 2 | 0 | 21 | 14.29 | 139:27 | 13:56 | 181 | 0:46 | |
| 196 | KOHL Benedikt | GER | D | 6 | 0 | 0 | 0 | 0 | -1 | 0 | 0 | 0 | 2 | 0.00 | 83:42 | 13:57 | 131 | 0:38 | |
| ORLOV Dmitri | RUS | D | 3 | 0 | 1 | 1 | 2 | 3 | 0 | 0 | 0 | 1 | 0.00 | 41:53 | 13:57 | 59 | 0:42 | ||
| 198 | PETRY Jeff | USA | D | 8 | 0 | 4 | 4 | 4 | -1 | 0 | 0 | 0 | 10 | 0.00 | 111:50 | 13:58 | 151 | 0:44 | |
| 199 | LARKIN Thomas | ITA | D | 7 | 0 | 1 | 1 | 4 | -1 | 0 | 0 | 0 | 4 | 0.00 | 97:56 | 13:59 | 127 | 0:46 | |
| MARCINKO Tomáš | SVK | F | 6 | 0 | 0 | 0 | 6 | 0 | 0 | 0 | 0 | 10 | 0.00 | 83:59 | 13:59 | 114 | 0:44 | ||
| 201 | ĶĒNIŅŠ Ronalds | LAT | F | 7 | 0 | 4 | 4 | 4 | 1 | 0 | 0 | 0 | 13 | 0.00 | 98:07 | 14:01 | 130 | 0:45 | |
| 202 | HJALMARSSON Simon | SWE | F | 10 | 1 | 0 | 1 | 4 | -3 | 0 | 0 | 0 | 17 | 5.88 | 140:41 | 14:04 | 223 | 0:37 | |
| 203 | REUL Denis | GER | D | 4 | 0 | 0 | 0 | 0 | 0 | 0 | 0 | 0 | 1 | 0.00 | 56:24 | 14:06 | 72 | 0:47 | |
| 204 | KRUEGER Justin | GER | D | 6 | 0 | 0 | 0 | 4 | -3 | 0 | 0 | 0 | 6 | 0.00 | 85:23 | 14:13 | 118 | 0:43 | |
| 205 | VITÁSEK Ondřej | CZE | D | 10 | 0 | 1 | 1 | 6 | -1 | 0 | 0 | 0 | 6 | 0.00 | 142:26 | 14:14 | 220 | 0:38 | |
| KADRI Nazem | CAN | F | 8 | 0 | 3 | 3 | 4 | 2 | 0 | 0 | 0 | 24 | 0.00 | 113:56 | 14:14 | 139 | 0:49 | ||
| 207 | MIHÁLIK Vladimír | SVK | D | 2 | 0 | 0 | 0 | 0 | -2 | 0 | 0 | 0 | 3 | 0.00 | 28:34 | 14:17 | 37 | 0:46 | |
| GANDER Markus | ITA | F | 7 | 2 | 0 | 2 | 2 | 0 | 1 | 0 | 0 | 6 | 33.33 | 100:05 | 14:17 | 122 | 0:49 | ||
| 209 | GAVRILIN Andrei | KAZ | F | 7 | 2 | 0 | 2 | 0 | -1 | 0 | 0 | 0 | 9 | 22.22 | 100:09 | 14:18 | 152 | 0:39 | |
| 210 | HUDLER Jiří | CZE | F | 10 | 1 | 3 | 4 | 8 | -1 | 0 | 1 | 0 | 14 | 7.14 | 144:26 | 14:26 | 198 | 0:43 | |
| GP | Number of games played | +/- | Plus/minus net | SG% | Percentage of goals from total shots |
| G | Goals | GWG | Game winning goals | TM | Total minutes played |
| A | Assists | PPG | Power play goals | M/G | Minutes per game |
| PTS | Points | SHG | Shorthanded goals | TSh | Total shifts played |
| PIM | Penalties in minutes | SOG | Shots on goal | AT/S | Average time per shift |